Time;durP1;ratioP1;P1;durP2;ratioP2;P2;SDS_P1;SDS_P2;PMS_P1;PMS_P2;Temp;Humidity;BMP_temperature;BMP_pressure;BME280_temperature;BME280_humidity;BME280_pressure;Samples;Min_cycle;Max_cycle;Signal;HPM_P1;HPM_P2
2023/07/02 00:33:45;;;;;;;6.23;3.20;;;16.20;99.90;;;;;;1936335;72;27739;-91
2023/07/02 01:19:58;;;;;;;3.70;3.20;;;16.20;99.90;;;;;;1926211;72;32075;-91
2023/07/02 01:23:25;;;;;;;5.27;3.60;;;16.30;99.90;;;;;;1864807;75;25208;-91
2023/07/02 01:36:39;;;;;;;4.93;3.30;;;16.40;99.90;;;;;;1933354;72;25230;-91
2023/07/02 01:39:57;;;;;;;3.30;3.00;;;16.40;99.90;;;;;;1927384;72;25204;-91
2023/07/02 01:49:55;;;;;;;2.93;2.70;;;16.50;99.90;;;;;;1918038;74;25258;-91
2023/07/02 01:53:25;;;;;;;3.60;2.67;;;16.40;99.90;;;;;;1903314;75;25824;-92
2023/07/02 02:42:58;;;;;;;4.23;2.07;;;16.20;99.90;;;;;;1934446;72;27616;-91
2023/07/02 02:46:04;;;;;;;2.40;2.20;;;16.10;99.90;;;;;;1898225;75;25343;-91
2023/07/02 02:48:53;;;;;;;4.67;2.30;;;16.10;99.90;;;;;;1901759;74;25251;-91
2023/07/02 02:51:43;;;;;;;2.27;2.17;;;16.10;99.90;;;;;;1886119;74;25358;-91
2023/07/02 02:55:12;;;;;;;2.33;2.17;;;16.10;99.90;;;;;;1905910;74;25286;-91
2023/07/02 02:58:58;;;;;;;5.57;2.50;;;16.10;99.90;;;;;;1905432;74;25576;-92
2023/07/02 03:05:23;;;;;;;2.77;2.47;;;16.00;99.90;;;;;;1961478;72;27374;-91
2023/07/02 03:37:00;;;;;;;4.23;2.30;;;16.10;99.90;;;;;;1921229;73;27517;-91
2023/07/02 03:57:56;;;;;;;5.23;2.90;;;16.30;99.90;;;;;;1941855;72;27216;-91
2023/07/02 04:00:54;;;;;;;7.40;3.50;;;16.20;99.90;;;;;;1923196;73;25674;-91
2023/07/02 04:04:07;;;;;;;4.87;2.80;;;16.20;99.90;;;;;;1933477;73;25220;-91
2023/07/02 04:06:59;;;;;;;4.37;3.40;;;16.20;99.90;;;;;;1920785;73;25236;-91
2023/07/02 04:09:50;;;;;;;9.40;3.50;;;16.30;99.90;;;;;;1927352;73;25251;-91
2023/07/02 04:12:46;;;;;;;7.47;3.30;;;16.30;99.90;;;;;;1905208;74;25674;-91
2023/07/02 04:15:35;;;;;;;4.30;3.10;;;16.30;99.90;;;;;;1915524;73;25175;-91
2023/07/02 04:19:11;;;;;;;6.67;3.50;;;16.30;99.90;;;;;;1922242;73;25676;-91
2023/07/02 04:22:27;;;;;;;4.43;3.40;;;16.20;99.90;;;;;;1923693;73;25251;-91
2023/07/02 04:25:34;;;;;;;5.10;3.60;;;16.30;99.90;;;;;;1918994;73;25222;-91
2023/07/02 04:28:50;;;;;;;6.13;3.57;;;16.30;99.90;;;;;;1929866;73;25689;-91
2023/07/02 04:31:42;;;;;;;5.77;3.70;;;16.40;99.90;;;;;;1916864;73;25714;-91
2023/07/02 04:34:50;;;;;;;9.00;3.70;;;16.30;99.90;;;;;;1923580;73;25285;-91
2023/07/02 04:37:48;;;;;;;5.43;3.43;;;16.40;99.90;;;;;;1924687;73;25141;-91
2023/07/02 04:41:06;;;;;;;6.37;3.90;;;16.30;99.90;;;;;;1930570;73;25129;-91
2023/07/02 04:47:10;;;;;;;10.83;4.30;;;16.30;99.90;;;;;;1948806;72;28158;-91
2023/07/02 04:50:03;;;;;;;8.70;4.00;;;16.30;99.90;;;;;;1931091;73;25188;-91
2023/07/02 04:53:06;;;;;;;8.00;4.10;;;16.30;99.90;;;;;;1948580;73;25208;-91
2023/07/02 04:56:36;;;;;;;10.00;4.23;;;16.30;99.90;;;;;;1916408;73;25179;-91
2023/07/02 04:59:44;;;;;;;3.70;3.23;;;16.20;99.90;;;;;;1931275;73;25175;-91
2023/07/02 05:16:10;;;;;;;11.33;4.10;;;16.20;99.90;;;;;;1996930;71;27589;-90
2023/07/02 05:49:14;;;;;;;8.67;3.00;;;16.90;99.90;;;;;;1952981;72;28385;-91
2023/07/02 05:52:16;;;;;;;7.40;2.83;;;16.90;99.90;;;;;;1915396;73;25235;-91
2023/07/02 05:55:13;;;;;;;8.13;2.90;;;16.80;99.90;;;;;;1886581;75;25172;-90
2023/07/02 05:58:16;;;;;;;10.73;3.00;;;16.80;99.90;;;;;;1922286;73;25514;-90
2023/07/02 06:01:19;;;;;;;7.30;2.97;;;16.90;99.90;;;;;;1930827;73;25681;-91
2023/07/02 06:04:11;;;;;;;7.13;2.53;;;16.80;99.90;;;;;;1933272;73;25199;-90
2023/07/02 06:07:29;;;;;;;10.20;2.50;;;16.90;99.90;;;;;;1913267;73;25725;-91
2023/07/02 06:10:49;;;;;;;7.70;2.90;;;17.00;99.90;;;;;;1917319;73;25160;-91
2023/07/02 06:14:16;;;;;;;15.67;3.10;;;17.00;99.90;;;;;;1917629;73;25214;-90
2023/07/02 06:17:15;;;;;;;8.50;2.30;;;17.10;99.90;;;;;;1920009;73;25134;-90
2023/07/02 06:20:05;;;;;;;7.10;2.30;;;17.00;99.90;;;;;;1928544;73;25222;-90
2023/07/02 06:22:54;;;;;;;10.77;3.10;;;17.10;99.90;;;;;;1896092;73;25215;-91
2023/07/02 06:25:47;;;;;;;6.83;2.50;;;17.10;99.90;;;;;;1926890;73;25227;-90
2023/07/02 06:29:02;;;;;;;5.10;2.90;;;17.20;99.90;;;;;;1917578;73;25702;-90
2023/07/02 06:31:54;;;;;;;7.07;2.90;;;17.20;99.90;;;;;;1931273;73;25702;-91
2023/07/02 06:35:09;;;;;;;7.03;2.60;;;17.20;99.90;;;;;;1927667;73;25804;-91
2023/07/02 06:38:08;;;;;;;8.13;2.20;;;17.00;99.90;;;;;;1915145;73;25515;-91
2023/07/02 06:40:57;;;;;;;6.67;2.50;;;16.90;99.90;;;;;;1918996;73;25708;-90
2023/07/02 06:43:56;;;;;;;4.43;2.13;;;17.00;99.90;;;;;;1925548;73;25247;-92
2023/07/02 06:50:29;;;;;;;9.93;2.53;;;17.50;99.90;;;;;;1925318;72;27960;-91
2023/07/02 06:53:26;;;;;;;3.00;1.77;;;17.70;99.90;;;;;;1862859;76;25232;-91
2023/07/02 06:56:18;;;;;;;3.83;1.93;;;18.10;99.90;;;;;;1847766;76;25311;-91
2023/07/02 06:59:10;;;;;;;4.13;1.80;;;18.20;99.90;;;;;;1858130;76;25243;-90
2023/07/02 07:02:07;;;;;;;2.70;1.90;;;18.30;99.90;;;;;;1847928;76;26217;-91
2023/07/02 07:04:59;;;;;;;3.63;1.80;;;18.30;99.90;;;;;;1858526;76;25252;-91
2023/07/02 07:11:56;;;;;;;1.93;1.77;;;18.30;99.90;;;;;;1844087;76;25242;-92
2023/07/02 07:18:56;;;;;;;1.90;1.70;;;18.00;99.90;;;;;;1869978;75;25278;-91
2023/07/02 07:22:00;;;;;;;3.43;1.73;;;18.10;99.90;;;;;;1847320;76;25872;-92
2023/07/02 07:25:01;;;;;;;2.90;1.80;;;18.00;99.90;;;;;;1821051;76;25200;-92
2023/07/02 07:31:45;;;;;;;2.27;1.63;;;18.00;99.90;;;;;;1836715;76;25267;-92
2023/07/02 07:35:02;;;;;;;3.93;1.93;;;18.10;99.90;;;;;;1852128;76;25170;-92
2023/07/02 07:37:54;;;;;;;5.27;1.90;;;18.00;99.90;;;;;;1841640;76;25280;-92
2023/07/02 07:44:30;;;;;;;2.40;2.20;;;17.80;99.90;;;;;;1809823;77;25199;-92
2023/07/02 08:37:09;;;;;;;4.27;2.00;;;19.00;99.90;;;;;;1971076;72;25247;-91
2023/07/02 09:37:57;;;;;;;10.07;1.87;;;18.80;99.90;;;;;;1916287;73;25258;-91
2023/07/02 10:02:42;;;;;;;11.27;2.20;;;18.70;99.90;;;;;;1911419;74;25222;-91
2023/07/02 10:33:30;;;;;;;5.40;2.30;;;19.90;99.90;;;;;;2000118;69;30934;-91
2023/07/02 10:39:15;;;;;;;7.67;2.10;;;20.40;99.90;;;;;;1947615;71;27473;-91
2023/07/02 10:42:09;;;;;;;12.03;2.87;;;20.90;99.90;;;;;;1930340;73;25258;-91
2023/07/02 10:45:00;;;;;;;11.67;2.70;;;21.00;99.90;;;;;;1910299;73;25224;-91
2023/07/02 10:47:50;;;;;;;8.37;2.50;;;21.00;99.90;;;;;;1869985;74;25564;-92
2023/07/02 10:50:42;;;;;;;6.77;2.60;;;21.00;99.90;;;;;;1836633;77;25243;-92
2023/07/02 11:19:44;;;;;;;9.00;2.57;;;20.80;99.90;;;;;;1915227;73;27093;-90
2023/07/02 12:07:49;;;;;;;11.27;2.83;;;20.90;99.90;;;;;;1868994;73;27570;-91
2023/07/02 13:39:32;;;;;;;8.20;4.23;;;21.00;99.90;;;;;;1974765;71;27059;-91
2023/07/02 13:42:21;;;;;;;4.53;2.40;;;21.20;99.90;;;;;;1988677;72;25297;-90
2023/07/02 13:45:13;;;;;;;5.63;1.60;;;21.10;99.90;;;;;;1986527;72;25237;-91
2023/07/02 13:48:02;;;;;;;3.47;1.70;;;21.30;99.90;;;;;;1991127;71;25913;-90
2023/07/02 14:05:20;;;;;;;7.17;1.80;;;21.70;99.90;;;;;;1864704;74;26900;-90
2023/07/02 14:21:37;;;;;;;5.90;1.60;;;21.00;99.90;;;;;;1988697;71;27005;-91
2023/07/02 14:27:15;;;;;;;2.07;1.10;;;20.90;99.90;;;;;;1941033;72;27861;-91
2023/07/02 14:30:07;;;;;;;4.63;1.63;;;20.70;99.90;;;;;;1921325;73;25239;-91
2023/07/02 14:32:55;;;;;;;5.67;1.67;;;20.30;99.90;;;;;;1921772;73;26563;-90
2023/07/02 14:35:43;;;;;;;4.70;1.47;;;20.10;99.90;;;;;;1925058;73;26383;-91
2023/07/02 14:38:33;;;;;;;7.43;1.53;;;20.30;99.90;;;;;;1916076;73;25855;-92
2023/07/02 14:41:22;;;;;;;7.63;1.50;;;20.60;99.90;;;;;;1919168;73;25274;-91
2023/07/02 14:44:11;;;;;;;5.43;2.10;;;20.50;99.90;;;;;;1902395;73;25364;-90
2023/07/02 15:15:39;;;;;;;5.70;1.53;;;20.80;99.90;;;;;;1909179;74;26698;-92
2023/07/02 15:34:45;;;;;;;5.50;2.37;;;20.50;99.90;;;;;;1914920;74;27956;-91
2023/07/02 16:28:51;;;;;;;4.23;1.40;;;19.90;99.90;;;;;;1941283;72;27115;-91
2023/07/02 16:50:02;;;;;;;3.10;1.60;;;19.50;99.90;;;;;;1948450;72;27080;-92
2023/07/02 16:55:44;;;;;;;5.90;1.50;;;20.00;99.90;;;;;;1955219;72;26933;-89
2023/07/02 17:30:04;;;;;;;8.83;2.97;;;18.80;99.90;;;;;;1969641;71;26243;-89
2023/07/02 17:32:55;;;;;;;8.27;2.10;;;17.80;99.90;;;;;;1979048;72;25293;-90
2023/07/02 17:35:45;;;;;;;4.97;2.27;;;17.70;99.90;;;;;;1994774;70;25222;-91
2023/07/02 17:38:34;;;;;;;7.47;2.10;;;17.60;99.90;;;;;;1996242;72;25251;-90
2023/07/02 17:41:24;;;;;;;12.83;2.60;;;17.60;99.90;;;;;;1976075;72;25643;-90
2023/07/02 17:44:13;;;;;;;7.53;2.00;;;17.60;99.90;;;;;;1950755;73;25191;-90
2023/07/02 17:49:52;;;;;;;6.70;1.73;;;17.40;99.90;;;;;;1940650;72;27073;-90
2023/07/02 17:52:42;;;;;;;5.83;1.60;;;17.30;99.90;;;;;;1916997;73;25302;-89
2023/07/02 17:58:17;;;;;;;6.83;1.83;;;17.20;99.90;;;;;;1998113;71;26918;-90
2023/07/02 18:01:05;;;;;;;8.70;2.30;;;17.10;99.90;;;;;;1967128;72;25319;-90
2023/07/02 18:03:54;;;;;;;2.83;1.57;;;17.00;99.90;;;;;;1976537;72;25186;-91
2023/07/02 18:06:46;;;;;;;8.50;2.00;;;17.00;99.90;;;;;;1962111;72;25243;-90
2023/07/02 18:09:35;;;;;;;7.93;1.80;;;17.00;99.90;;;;;;1965008;71;26140;-89
2023/07/02 18:12:27;;;;;;;8.07;2.13;;;17.00;99.90;;;;;;1960841;72;25175;-90
2023/07/02 18:15:16;;;;;;;8.60;1.93;;;17.00;99.90;;;;;;1975768;71;25402;-90
2023/07/02 18:18:05;;;;;;;7.03;2.23;;;17.00;99.90;;;;;;1965131;70;25171;-90
2023/07/02 18:20:55;;;;;;;8.10;1.80;;;16.90;99.90;;;;;;1965093;72;25165;-89
2023/07/02 18:23:44;;;;;;;11.63;2.23;;;16.90;99.90;;;;;;1965223;72;25225;-89
2023/07/02 18:26:33;;;;;;;9.77;1.97;;;16.80;99.90;;;;;;1964273;72;25879;-91
2023/07/02 18:29:21;;;;;;;10.00;2.10;;;16.80;99.90;;;;;;1973473;72;25205;-90
2023/07/02 18:50:40;;;;;;;8.37;1.40;;;16.60;99.90;;;;;;1961224;72;26930;-90
2023/07/02 18:53:29;;;;;;;3.73;1.30;;;16.50;99.90;;;;;;1939999;73;25322;-90
2023/07/02 18:56:18;;;;;;;4.20;1.20;;;16.50;99.90;;;;;;1930446;73;25772;-90
2023/07/02 19:02:32;;;;;;;6.93;1.60;;;16.50;99.90;;;;;;2064152;68;26741;-90
2023/07/02 19:05:21;;;;;;;6.13;1.33;;;16.40;99.90;;;;;;2005551;71;25178;-90
2023/07/02 19:11:07;;;;;;;4.77;1.37;;;16.30;99.90;;;;;;1951054;72;26981;-90
2023/07/02 19:18:45;;;;;;;9.37;1.80;;;16.10;99.90;;;;;;1975612;71;27107;-92
2023/07/02 19:21:34;;;;;;;5.77;1.50;;;16.00;99.90;;;;;;1999284;70;25170;-90
2023/07/02 19:24:24;;;;;;;5.83;1.70;;;16.00;99.90;;;;;;2007557;70;25645;-90
2023/07/02 19:27:16;;;;;;;6.77;1.40;;;15.90;99.90;;;;;;2022992;69;25253;-91
2023/07/02 19:30:06;;;;;;;10.77;1.60;;;15.80;99.90;;;;;;2009735;70;25202;-90
2023/07/02 19:32:55;;;;;;;11.17;2.13;;;15.90;99.90;;;;;;2016226;69;25190;-90
2023/07/02 19:35:44;;;;;;;8.73;1.63;;;15.80;99.90;;;;;;2018774;70;25148;-89
2023/07/02 19:38:33;;;;;;;14.47;2.17;;;15.70;99.90;;;;;;2010282;70;25666;-90
2023/07/02 19:41:22;;;;;;;7.27;2.43;;;15.50;99.90;;;;;;2005293;70;25234;-90
2023/07/02 19:44:12;;;;;;;6.93;1.67;;;15.40;99.90;;;;;;1985324;72;25204;-90
2023/07/02 19:49:46;;;;;;;8.10;1.77;;;15.30;99.90;;;;;;1947016;71;27628;-89
2023/07/02 19:52:35;;;;;;;6.23;2.07;;;15.30;99.90;;;;;;1934990;73;25320;-92
2023/07/02 19:55:24;;;;;;;8.90;1.67;;;15.20;99.90;;;;;;1921613;73;25241;-91
2023/07/02 19:58:14;;;;;;;7.87;2.33;;;15.10;99.90;;;;;;1929128;72;25338;-91
2023/07/02 20:01:03;;;;;;;7.03;1.73;;;15.00;99.90;;;;;;1932475;72;25256;-91
2023/07/02 20:03:52;;;;;;;5.77;1.63;;;15.00;99.90;;;;;;1935493;72;25218;-91
2023/07/02 20:06:41;;;;;;;3.63;1.40;;;15.00;99.90;;;;;;1934854;72;25236;-91
2023/07/02 20:09:30;;;;;;;10.23;1.73;;;14.90;99.90;;;;;;1937404;72;25607;-91
2023/07/02 20:18:40;;;;;;;4.13;1.50;;;14.90;99.90;;;;;;1977739;71;26215;-89
2023/07/02 20:21:29;;;;;;;5.90;1.63;;;14.70;99.90;;;;;;2007602;70;25791;-90
2023/07/02 20:24:18;;;;;;;7.00;1.80;;;14.70;99.90;;;;;;2012397;70;25175;-90
2023/07/02 20:27:07;;;;;;;6.03;1.60;;;14.80;99.90;;;;;;2020298;70;25176;-89
2023/07/02 20:29:57;;;;;;;5.30;1.63;;;14.90;99.90;;;;;;2015979;70;25232;-90
2023/07/02 20:32:45;;;;;;;3.87;1.20;;;14.90;99.90;;;;;;2018697;70;25225;-89
2023/07/02 20:35:41;;;;;;;8.50;1.70;;;14.80;99.90;;;;;;2018595;70;25178;-89
2023/07/02 20:38:30;;;;;;;8.53;1.90;;;14.70;99.90;;;;;;2008744;69;25690;-89
2023/07/02 20:59:43;;;;;;;8.87;1.90;;;14.40;99.90;;;;;;1936990;72;26969;-89
2023/07/02 21:02:32;;;;;;;2.37;1.53;;;14.40;99.90;;;;;;1920603;73;25836;-90
2023/07/02 21:05:21;;;;;;;8.43;1.90;;;14.40;99.90;;;;;;1923186;73;25324;-89
2023/07/02 21:10:49;;;;;;;7.07;1.80;;;14.50;99.90;;;;;;1942592;72;27556;-89
2023/07/02 21:13:38;;;;;;;8.67;2.10;;;14.60;99.90;;;;;;1929411;73;25269;-89
2023/07/02 21:19:37;;;;;;;8.03;2.13;;;14.60;99.90;;;;;;1929288;73;25249;-90
2023/07/02 21:22:27;;;;;;;8.57;2.20;;;14.70;99.90;;;;;;1929318;73;25835;-90
2023/07/02 21:25:17;;;;;;;7.50;2.20;;;14.70;99.90;;;;;;1944157;73;25259;-90
2023/07/02 21:28:08;;;;;;;8.77;2.07;;;14.70;99.90;;;;;;1925891;73;25744;-90
2023/07/02 21:33:50;;;;;;;11.87;2.27;;;14.70;99.90;;;;;;1942807;72;27040;-89
2023/07/02 21:36:39;;;;;;;5.67;1.83;;;14.70;99.90;;;;;;1927497;73;25232;-89
2023/07/02 22:09:55;;;;;;;6.30;1.60;;;14.60;99.90;;;;;;1938315;72;27080;-89
2023/07/02 22:12:44;;;;;;;5.40;1.63;;;14.60;99.90;;;;;;1874305;76;25281;-89
2023/07/02 22:15:34;;;;;;;10.67;1.53;;;14.60;99.90;;;;;;1870035;76;25289;-89
2023/07/02 22:18:24;;;;;;;5.30;1.40;;;14.50;99.90;;;;;;1863343;76;25216;-89
2023/07/02 22:21:13;;;;;;;7.60;1.77;;;14.50;99.90;;;;;;1865971;75;25713;-89
2023/07/02 22:24:03;;;;;;;3.80;1.30;;;14.50;99.90;;;;;;1854818;76;25230;-89
2023/07/02 22:26:51;;;;;;;6.33;1.43;;;14.30;99.90;;;;;;1828735;77;25740;-89
2023/07/02 22:47:46;;;;;;;10.57;1.87;;;14.30;99.90;;;;;;2000910;71;27038;-90
2023/07/02 23:12:19;;;;;;;9.77;1.93;;;14.20;99.90;;;;;;1926897;73;27072;-89
2023/07/02 23:19:58;;;;;;;10.13;2.17;;;14.40;99.90;;;;;;1954165;72;31234;-89
2023/07/02 23:22:49;;;;;;;13.53;2.77;;;14.40;99.90;;;;;;1961125;72;25493;-89
2023/07/02 23:25:41;;;;;;;14.17;3.00;;;14.40;99.90;;;;;;2001356;70;25214;-89
2023/07/02 23:28:30;;;;;;;18.40;3.00;;;14.40;99.90;;;;;;2003173;70;25233;-89
2023/07/02 23:31:19;;;;;;;15.27;3.07;;;14.40;99.90;;;;;;2001427;70;25220;-89
2023/07/02 23:34:10;;;;;;;13.47;3.10;;;14.30;99.90;;;;;;2015447;70;25195;-89
2023/07/02 23:36:58;;;;;;;11.80;2.43;;;14.20;99.90;;;;;;1984893;70;26733;-89
2023/07/02 23:39:51;;;;;;;11.67;2.50;;;14.10;99.90;;;;;;2006182;70;25204;-89
2023/07/02 23:42:41;;;;;;;10.77;2.47;;;14.10;99.90;;;;;;2009707;70;25705;-89
2023/07/02 23:45:30;;;;;;;7.30;2.00;;;14.00;99.90;;;;;;2002896;70;25220;-90
2023/07/02 23:48:19;;;;;;;7.93;1.90;;;14.00;99.90;;;;;;2000380;70;25598;-90
2023/07/02 23:51:08;;;;;;;4.70;1.47;;;14.00;99.90;;;;;;2013752;70;25240;-90
2023/07/02 23:54:08;;;;;;;7.27;1.60;;;14.00;99.90;;;;;;2021515;70;25968;-90
